Accueil
METAR-TAF:

METAR-TAF

Aéroports :

Aéroport de Huesca-Pyrénées

Huesca, Espagne

latitude: 42-04-32N, longitude: 0-18-58W, altitude: 539 m

Observation

Le bulletin a été fait il y a 41 minutes, à 14:30 UTC
Vent 6 kt de est/sud-est, variant entre est/nord-est et sud/sud-est
Température 12°C
Humidité 47%
Pression 1020 hPa
Visibilité 10 km ou plus
pas de nuages en-dessous de 1500 mètres et pas de cumulonimbus.

METAR: LEHC 241430Z 11006KT 070V160 CAVOK 12/01 Q1020

Heure: 16:11 (15:11 UTC)

Prévision

Le bulletin a été fait il y a 1 heure et 11 minutes, à 14:00 UTC
Prévision valable du 24 à 15 UTC au 25 à 15 UTC
Vent 7 kt de est/sud-est
Visibilité 10 km ou plus
pas de nuages en-dessous de 1500 mètres et pas de cumulonimbus.
Evoluant progressivement
du 24 à 18 UTC au 24 à 20 UTC
Vent 10 kt de est

TAF: LEHC 241400Z 2415/2515 11007KT CAVOK TX14/2513Z TN04/2507Z BECMG 2418/2420 08010KT

Observations et prévisions météorologiques de plus de 4000 aéroports (messages METAR et TAF).

Les stations disponibles sont représentées par des disques jaunes et rouges sur la carte.

Passer la souris dessus pour voir le nom de la station.

Cliquer dessus pour voir les observations et prévisions météorologiques.

Pour changer de carte: cliquez sur les boutons verts avec une croix noire pour zoomer, sur le bouton vert avec un tiret pour effectuer un zoom arrière, ou sur les flèches vertes pour les cartes adjacentes.


METAR-TAF: